Time;durP1;ratioP1;P1;durP2;ratioP2;P2;SDS_P1;SDS_P2;PMS_P1;PMS_P2;Temp;Humidity;BMP_temperature;BMP_pressure;BME280_temperature;BME280_humidity;BME280_pressure;Samples;Min_cycle;Max_cycle;Signal;HPM_P1;HPM_P2
2023/09/19 00:00:34;;;;;;;50.78;16.48;;;;;;;17.24;98.02;99872.34;4959051;28;20078;-70
2023/09/19 00:03:01;;;;;;;60.50;16.20;;;;;;;17.06;99.42;99877.38;4942091;28;20121;-70
2023/09/19 00:05:34;;;;;;;60.47;17.38;;;;;;;17.12;100.00;99872.06;4957630;28;20058;-71
2023/09/19 00:08:04;;;;;;;51.78;16.83;;;;;;;17.06;99.36;99874.69;4925895;28;20553;-71
2023/09/19 00:10:34;;;;;;;48.90;16.50;;;;;;;17.10;99.47;99881.34;4910795;28;20512;-71
2023/09/19 00:13:06;;;;;;;44.95;15.75;;;;;;;17.08;99.36;99872.66;4919383;29;20044;-71
2023/09/19 00:15:40;;;;;;;55.85;16.45;;;;;;;17.13;99.22;99880.97;4904336;29;20492;-71
2023/09/19 00:18:08;;;;;;;53.75;16.50;;;;;;;17.01;100.00;99877.94;4903564;29;20090;-71
2023/09/19 00:20:38;;;;;;;42.15;15.48;;;;;;;17.04;100.00;99877.56;4919460;29;20082;-71
2023/09/19 00:23:08;;;;;;;54.60;16.58;;;;;;;17.02;100.00;99876.09;4903406;29;20059;-70
2023/09/19 00:25:38;;;;;;;40.33;14.90;;;;;;;17.14;100.00;99877.25;4903743;29;20485;-70
2023/09/19 00:28:06;;;;;;;38.78;15.63;;;;;;;17.12;98.82;99879.28;4903269;29;20047;-70
2023/09/19 00:30:32;;;;;;;44.10;14.85;;;;;;;17.10;98.20;99884.03;4939658;28;20053;-71
2023/09/19 00:33:00;;;;;;;47.53;14.65;;;;;;;17.12;97.80;99874.75;4926012;28;20054;-70
2023/09/19 00:35:30;;;;;;;42.08;16.35;;;;;;;17.10;97.37;99889.41;4957606;28;20166;-70
2023/09/19 00:37:56;;;;;;;50.67;16.13;;;;;;;17.07;97.60;99887.91;4942087;28;20134;-70
2023/09/19 00:40:22;;;;;;;49.70;17.55;;;;;;;17.01;98.54;99869.91;4940920;28;20174;-71
2023/09/19 00:42:50;;;;;;;40.90;15.10;;;;;;;17.05;98.88;99873.03;4926703;28;20043;-71
2023/09/19 00:45:18;;;;;;;65.47;17.95;;;;;;;16.91;100.00;99879.31;4995483;28;20073;-70
2023/09/19 00:47:48;;;;;;;59.25;18.00;;;;;;;16.95;100.00;99885.94;4963371;28;20085;-70
2023/09/19 00:50:18;;;;;;;52.45;17.58;;;;;;;17.05;99.82;99898.03;4956774;28;20058;-72
2023/09/19 00:52:47;;;;;;;55.47;18.30;;;;;;;17.03;99.74;99875.91;4940815;28;20139;-71
2023/09/19 00:55:20;;;;;;;58.35;22.15;;;;;;;17.01;99.64;99882.47;4941288;28;20113;-71
2023/09/19 00:57:49;;;;;;;72.03;24.92;;;;;;;16.98;99.40;99882.88;4956557;28;20065;-71
2023/09/19 01:00:19;;;;;;;67.88;35.72;;;;;;;17.00;99.33;99887.03;4940606;28;20043;-71
2023/09/19 01:02:45;;;;;;;70.60;32.55;;;;;;;16.96;99.52;99884.94;4941186;28;20383;-71
2023/09/19 01:05:13;;;;;;;63.67;30.45;;;;;;;16.97;99.37;99881.22;4924958;28;20074;-72
2023/09/19 01:07:44;;;;;;;61.42;28.20;;;;;;;16.97;99.15;99878.53;4940503;28;20544;-71
2023/09/19 01:10:16;;;;;;;61.42;27.63;;;;;;;17.07;99.13;99881.75;4940986;28;20086;-71
2023/09/19 01:13:22;;;;;;;60.90;26.70;;;;;;;17.09;99.11;99882.34;4956412;28;20045;-71
2023/09/19 01:15:58;;;;;;;60.45;27.30;;;;;;;17.04;99.47;99882.09;4952411;28;20064;-70
2023/09/19 01:18:45;;;;;;;53.05;24.35;;;;;;;17.05;99.28;99878.41;4945793;28;20046;-70
2023/09/19 01:21:17;;;;;;;62.42;23.70;;;;;;;17.10;99.06;99881.34;4962845;28;20273;-70
2023/09/19 01:24:18;;;;;;;62.22;24.23;;;;;;;17.07;98.99;99881.75;4962616;28;20045;-72
2023/09/19 01:27:21;;;;;;;49.97;22.38;;;;;;;17.04;98.91;99879.41;4978858;28;20046;-72
2023/09/19 01:29:49;;;;;;;48.45;22.88;;;;;;;16.92;98.67;99889.00;4995305;28;20050;-71
2023/09/19 01:32:24;;;;;;;49.63;23.85;;;;;;;17.10;98.59;99890.22;4946364;28;20208;-72
2023/09/19 01:35:04;;;;;;;45.85;21.92;;;;;;;17.15;97.61;99889.63;4963075;28;20145;-71
2023/09/19 01:37:31;;;;;;;40.03;21.40;;;;;;;17.02;97.04;99887.66;4964299;28;20045;-71
2023/09/19 01:40:10;;;;;;;55.03;23.25;;;;;;;17.07;97.37;99887.09;4968774;28;20379;-71
2023/09/19 01:42:45;;;;;;;44.05;21.73;;;;;;;16.93;97.66;99883.44;5000206;28;20037;-71
2023/09/19 01:45:12;;;;;;;45.55;21.42;;;;;;;16.72;97.76;99886.97;4998716;28;20041;-71
2023/09/19 01:48:24;;;;;;;44.70;21.55;;;;;;;16.58;98.50;99877.13;5015324;28;20049;-70
2023/09/19 01:51:01;;;;;;;44.50;20.55;;;;;;;16.66;98.54;99870.81;5013182;28;20053;-70
2023/09/19 01:53:33;;;;;;;47.03;20.20;;;;;;;16.52;98.81;99871.69;5048106;28;20477;-70
2023/09/19 01:56:03;;;;;;;44.50;21.45;;;;;;;16.25;99.78;99865.16;5015375;28;20401;-71
2023/09/19 01:58:40;;;;;;;47.25;21.55;;;;;;;16.10;100.00;99856.34;5015285;28;20041;-69
2023/09/19 02:01:10;;;;;;;42.10;19.88;;;;;;;16.11;100.00;99855.34;4999452;28;20057;-71
2023/09/19 02:03:38;;;;;;;79.32;22.38;;;;;;;15.96;100.00;99859.06;4983098;28;20132;-70
2023/09/19 02:06:05;;;;;;;70.35;23.55;;;;;;;15.82;100.00;99855.34;4999006;28;20060;-69
2023/09/19 02:08:33;;;;;;;149.15;25.20;;;;;;;15.67;100.00;99861.75;5031439;28;20120;-69
2023/09/19 02:11:00;;;;;;;65.63;24.38;;;;;;;15.69;100.00;99851.69;4993809;28;20058;-70
2023/09/19 02:13:27;;;;;;;88.47;25.67;;;;;;;15.43;100.00;99843.28;4961732;28;21014;-69
2023/09/19 02:15:55;;;;;;;49.95;22.13;;;;;;;15.54;100.00;99841.00;4962312;28;20122;-70
2023/09/19 02:18:22;;;;;;;178.43;28.83;;;;;;;15.51;100.00;99846.72;4965278;28;20435;-69
2023/09/19 02:20:48;;;;;;;52.67;23.80;;;;;;;15.63;100.00;99850.59;4981392;28;20057;-69
2023/09/19 02:23:15;;;;;;;57.70;23.27;;;;;;;15.64;100.00;99852.25;4981008;28;20081;-69
2023/09/19 02:25:43;;;;;;;107.38;25.27;;;;;;;15.56;100.00;99846.97;4997580;28;20093;-70
2023/09/19 02:28:09;;;;;;;204.77;27.23;;;;;;;15.41;100.00;99839.97;4981142;28;20393;-70
2023/09/19 02:30:36;;;;;;;130.30;26.80;;;;;;;15.36;100.00;99848.50;5013446;28;20061;-70
2023/09/19 02:33:03;;;;;;;373.00;31.40;;;;;;;15.28;100.00;99845.91;4980973;28;20049;-70
2023/09/19 02:35:35;;;;;;;149.20;25.88;;;;;;;15.31;100.00;99842.03;4974222;28;20061;-70
2023/09/19 02:38:06;;;;;;;217.63;28.90;;;;;;;15.17;100.00;99847.22;4905263;29;20109;-71
2023/09/19 02:40:35;;;;;;;180.68;28.48;;;;;;;15.01;100.00;99851.84;4935804;29;20082;-70
2023/09/19 02:43:01;;;;;;;182.77;29.15;;;;;;;15.10;100.00;99850.75;4935834;29;20086;-70
2023/09/19 02:45:30;;;;;;;149.63;29.08;;;;;;;15.00;100.00;99851.03;4904344;29;20082;-70
2023/09/19 02:47:57;;;;;;;207.95;28.77;;;;;;;15.11;100.00;99850.56;4904244;29;20047;-72
2023/09/19 02:50:25;;;;;;;248.02;28.55;;;;;;;15.00;100.00;99843.03;4937437;28;20055;-70
2023/09/19 02:52:52;;;;;;;203.10;28.40;;;;;;;14.97;100.00;99846.06;4938872;28;20054;-70
2023/09/19 02:55:21;;;;;;;144.38;28.67;;;;;;;15.03;100.00;99849.84;4922922;28;20050;-70
2023/09/19 02:57:54;;;;;;;127.35;34.08;;;;;;;14.96;100.00;99860.41;4939318;28;20058;-70
2023/09/19 03:00:22;;;;;;;88.68;29.92;;;;;;;15.04;100.00;99852.34;4923411;28;20074;-70
2023/09/19 03:02:54;;;;;;;83.30;31.58;;;;;;;15.17;100.00;99843.69;4923236;28;20082;-70
2023/09/19 03:05:20;;;;;;;172.50;35.97;;;;;;;15.06;100.00;99850.31;4939246;28;20170;-70
2023/09/19 03:07:50;;;;;;;86.53;30.02;;;;;;;15.13;100.00;99845.03;4923044;28;20141;-70
2023/09/19 03:10:18;;;;;;;76.90;29.73;;;;;;;15.18;100.00;99845.34;4996669;28;20045;-70
2023/09/19 03:12:47;;;;;;;74.50;30.80;;;;;;;15.33;100.00;99848.06;5015134;28;20045;-71
2023/09/19 03:15:15;;;;;;;72.65;28.17;;;;;;;15.31;100.00;99850.06;5012779;28;20072;-70
2023/09/19 03:17:44;;;;;;;61.70;28.00;;;;;;;15.34;100.00;99855.91;4964741;28;20045;-70
2023/09/19 03:20:13;;;;;;;56.47;24.25;;;;;;;15.39;100.00;99850.03;5013020;28;20119;-70
2023/09/19 03:22:40;;;;;;;50.70;23.95;;;;;;;15.40;100.00;99852.50;4996794;28;20049;-70
2023/09/19 03:25:11;;;;;;;44.53;23.80;;;;;;;15.53;100.00;99854.56;4982291;28;20045;-70
2023/09/19 03:27:39;;;;;;;46.47;23.30;;;;;;;15.64;100.00;99868.31;4941212;28;20471;-70
2023/09/19 03:30:08;;;;;;;43.25;22.25;;;;;;;15.82;100.00;99860.72;4940506;28;20061;-70
2023/09/19 03:32:36;;;;;;;39.35;22.25;;;;;;;15.87;100.00;99862.84;4923706;28;20051;-70
2023/09/19 03:35:05;;;;;;;42.38;21.98;;;;;;;15.94;100.00;99859.25;4938639;28;20066;-70
2023/09/19 03:37:33;;;;;;;38.22;21.23;;;;;;;15.93;100.00;99856.75;4923595;28;20055;-70
2023/09/19 03:40:04;;;;;;;39.88;20.63;;;;;;;15.77;100.00;99855.09;4922906;28;20077;-70
2023/09/19 03:42:31;;;;;;;42.13;22.50;;;;;;;15.66;100.00;99844.84;4926143;28;20055;-71
2023/09/19 03:44:57;;;;;;;44.08;21.67;;;;;;;15.60;100.00;99842.94;4926270;28;20085;-71
2023/09/19 03:47:24;;;;;;;45.28;21.10;;;;;;;15.81;100.00;99847.50;4941967;28;20065;-71
2023/09/19 03:49:52;;;;;;;38.15;20.92;;;;;;;15.82;100.00;99847.31;4926171;28;20085;-71
2023/09/19 03:52:20;;;;;;;37.20;20.98;;;;;;;15.67;100.00;99851.88;4942680;28;20137;-71
2023/09/19 03:54:46;;;;;;;31.10;19.10;;;;;;;15.68;100.00;99842.00;4925978;28;20490;-69
2023/09/19 03:57:15;;;;;;;36.47;19.38;;;;;;;15.85;100.00;99846.94;4926086;28;20046;-70
2023/09/19 03:59:42;;;;;;;34.20;18.60;;;;;;;16.00;100.00;99849.63;4926097;28;20047;-69
2023/09/19 04:02:21;;;;;;;33.88;18.63;;;;;;;15.99;100.00;99848.78;4910851;28;20054;-71
2023/09/19 04:04:49;;;;;;;35.85;18.08;;;;;;;16.16;100.00;99847.53;4953768;28;20508;-71
2023/09/19 04:07:19;;;;;;;28.42;18.05;;;;;;;16.30;100.00;99848.53;4999747;28;20049;-71
2023/09/19 04:09:46;;;;;;;29.93;17.70;;;;;;;16.24;99.58;99847.44;4967823;28;20053;-71
2023/09/19 04:12:12;;;;;;;30.85;19.00;;;;;;;15.95;100.00;99846.66;4967639;28;20136;-71
2023/09/19 04:14:38;;;;;;;30.20;18.35;;;;;;;15.88;100.00;99843.09;4983658;28;20053;-72
2023/09/19 04:17:07;;;;;;;30.00;17.73;;;;;;;15.95;100.00;99849.34;4967433;28;20049;-68
2023/09/19 04:19:33;;;;;;;31.65;18.88;;;;;;;15.97;100.00;99850.84;5007647;28;20495;-71
2023/09/19 04:21:59;;;;;;;32.60;18.88;;;;;;;15.84;100.00;99847.13;5023772;28;20074;-69
2023/09/19 04:24:26;;;;;;;32.95;19.63;;;;;;;15.78;100.00;99854.06;5007007;28;20059;-68
2023/09/19 04:26:52;;;;;;;30.40;17.35;;;;;;;15.77;100.00;99848.91;5023286;28;20041;-70
2023/09/19 04:29:20;;;;;;;30.80;17.95;;;;;;;15.64;100.00;99841.53;5023231;28;20123;-69
2023/09/19 04:31:46;;;;;;;35.28;18.90;;;;;;;15.68;100.00;99833.97;5023131;28;20078;-70
2023/09/19 04:34:17;;;;;;;30.05;16.90;;;;;;;15.48;100.00;99843.56;5023477;28;20048;-70
2023/09/19 04:36:46;;;;;;;31.25;17.55;;;;;;;15.48;100.00;99839.06;5041238;28;20533;-70
2023/09/19 04:39:12;;;;;;;34.65;18.08;;;;;;;15.50;100.00;99833.50;5023246;28;20135;-70
2023/09/19 04:41:40;;;;;;;28.90;16.70;;;;;;;15.53;100.00;99836.63;4998995;28;20119;-69
2023/09/19 04:44:07;;;;;;;33.72;17.38;;;;;;;15.93;100.00;99836.13;4960944;28;20070;-70
2023/09/19 04:46:34;;;;;;;28.30;16.85;;;;;;;15.75;100.00;99841.06;4909253;28;20153;-69
2023/09/19 04:49:00;;;;;;;29.10;16.65;;;;;;;15.65;100.00;99840.53;4940754;28;20503;-70
2023/09/19 04:51:32;;;;;;;25.27;16.33;;;;;;;15.54;100.00;99838.31;4940753;28;20074;-72
2023/09/19 04:54:03;;;;;;;27.02;17.05;;;;;;;15.76;100.00;99823.97;4924562;28;20121;-72
2023/09/19 04:56:29;;;;;;;23.02;14.82;;;;;;;16.06;100.00;99822.91;4909213;28;20059;-72
2023/09/19 04:58:58;;;;;;;20.35;13.93;;;;;;;15.71;100.00;99834.44;4908506;28;20089;-72
2023/09/19 05:01:25;;;;;;;26.77;14.73;;;;;;;15.80;100.00;99817.25;4972330;28;20084;-72
2023/09/19 05:03:54;;;;;;;19.10;12.07;;;;;;;15.77;100.00;99808.75;4940681;28;20063;-73
2023/09/19 05:06:23;;;;;;;30.58;14.38;;;;;;;15.81;100.00;99820.72;4940553;28;20052;-71
2023/09/19 05:08:52;;;;;;;23.45;13.30;;;;;;;15.93;100.00;99825.41;4940486;28;20141;-72
2023/09/19 05:11:21;;;;;;;22.48;13.40;;;;;;;15.90;100.00;99814.28;4925160;28;20056;-71
2023/09/19 05:13:50;;;;;;;29.00;13.30;;;;;;;16.04;100.00;99824.09;4963028;28;20521;-70
2023/09/19 05:16:17;;;;;;;25.95;14.27;;;;;;;16.14;99.83;99822.81;5022854;28;20040;-71
2023/09/19 05:18:43;;;;;;;21.60;12.88;;;;;;;16.18;99.22;99820.56;4995022;28;20412;-71
2023/09/19 05:21:14;;;;;;;22.55;12.98;;;;;;;16.35;98.92;99822.81;4972230;28;20050;-72
2023/09/19 05:23:40;;;;;;;19.83;13.48;;;;;;;16.19;98.35;99831.09;4909088;28;20069;-71
2023/09/19 05:26:07;;;;;;;21.90;12.27;;;;;;;16.14;99.26;99820.13;4972260;28;20560;-69
2023/09/19 05:28:34;;;;;;;17.73;12.68;;;;;;;16.33;99.03;99821.34;4940287;28;20098;-71
2023/09/19 05:31:02;;;;;;;18.67;12.15;;;;;;;16.43;97.94;99821.88;4971781;28;20510;-70
2023/09/19 05:33:31;;;;;;;19.92;12.75;;;;;;;16.62;97.21;99816.72;4955303;28;20058;-69
2023/09/19 05:35:58;;;;;;;21.73;12.65;;;;;;;16.67;96.80;99822.34;4953785;28;20065;-69
2023/09/19 05:38:26;;;;;;;24.67;12.95;;;;;;;16.58;97.03;99820.81;4971836;28;20066;-70
2023/09/19 05:40:54;;;;;;;18.10;13.05;;;;;;;16.80;96.71;99838.53;4936369;29;20058;-69
2023/09/19 05:43:21;;;;;;;20.05;12.02;;;;;;;16.83;95.80;99811.38;4935976;29;20237;-70
2023/09/19 05:45:48;;;;;;;20.13;12.85;;;;;;;17.00;95.14;99824.47;4920626;29;20055;-71
2023/09/19 05:48:15;;;;;;;27.13;13.73;;;;;;;16.99;94.73;99826.31;4920184;29;20059;-70
2023/09/19 05:50:42;;;;;;;23.83;14.52;;;;;;;16.80;95.67;99816.28;4956714;28;20037;-70
2023/09/19 05:53:11;;;;;;;20.85;13.55;;;;;;;16.74;96.08;99823.22;4976790;28;20067;-70
2023/09/19 05:55:38;;;;;;;18.63;12.95;;;;;;;16.94;95.72;99814.53;4985742;28;20058;-68
2023/09/19 05:58:06;;;;;;;21.27;13.30;;;;;;;16.92;95.66;99808.50;4968596;28;20057;-70
2023/09/19 06:00:32;;;;;;;22.77;13.70;;;;;;;17.01;95.93;99812.72;4969519;28;20038;-70
2023/09/19 06:02:59;;;;;;;23.02;12.32;;;;;;;17.10;95.00;99806.19;4975139;28;20042;-69
2023/09/19 06:05:26;;;;;;;24.45;12.57;;;;;;;17.49;94.31;99801.94;5001366;28;20128;-71
2023/09/19 06:07:53;;;;;;;20.88;13.38;;;;;;;17.40;93.60;99813.84;4995569;28;20111;-71
2023/09/19 06:10:20;;;;;;;19.70;13.02;;;;;;;17.41;93.66;99803.91;4969602;28;20529;-73
2023/09/19 06:12:48;;;;;;;19.27;12.23;;;;;;;17.74;92.22;99813.84;5012893;28;20053;-70
2023/09/19 06:15:15;;;;;;;20.77;12.82;;;;;;;18.10;90.88;99809.03;4985670;28;20148;-71
2023/09/19 06:17:49;;;;;;;24.00;12.60;;;;;;;18.25;89.97;99807.00;4962088;28;20056;-71
2023/09/19 06:20:16;;;;;;;21.05;12.52;;;;;;;18.30;89.41;99815.28;4978122;28;20057;-71
2023/09/19 06:22:45;;;;;;;22.60;12.57;;;;;;;18.61;87.86;99812.06;4938752;28;20065;-71
2023/09/19 06:25:15;;;;;;;22.67;12.10;;;;;;;18.68;87.20;99822.84;4944396;28;20074;-72
2023/09/19 06:27:42;;;;;;;26.92;11.73;;;;;;;19.02;86.48;99810.00;4960568;28;20171;-72
2023/09/19 06:30:11;;;;;;;23.35;11.52;;;;;;;19.56;84.87;99807.88;4930820;28;20077;-72
2023/09/19 06:32:37;;;;;;;24.40;11.35;;;;;;;20.22;81.92;99811.16;4961345;28;20070;-72
2023/09/19 06:35:07;;;;;;;19.65;12.13;;;;;;;20.11;80.30;99806.44;4951362;28;20486;-72
2023/09/19 06:37:34;;;;;;;32.63;11.32;;;;;;;20.53;78.69;99802.25;4955266;28;20046;-72
2023/09/19 06:40:00;;;;;;;25.23;10.98;;;;;;;20.87;77.33;99807.22;4955350;28;20054;-71
2023/09/19 06:42:28;;;;;;;22.13;10.13;;;;;;;21.35;75.86;99806.41;4939334;28;20073;-67
2023/09/19 06:44:56;;;;;;;22.60;10.73;;;;;;;21.49;73.35;99797.13;4955056;28;20141;-68
2023/09/19 06:47:21;;;;;;;25.83;10.85;;;;;;;21.10;73.17;99808.28;4978723;28;20060;-67
2023/09/19 06:49:49;;;;;;;24.38;12.02;;;;;;;21.13;74.72;99790.81;4970072;28;20058;-69
2023/09/19 06:52:15;;;;;;;29.40;10.55;;;;;;;21.57;73.90;99788.69;4961228;28;20041;-67
2023/09/19 06:54:41;;;;;;;20.23;10.75;;;;;;;22.06;71.40;99786.88;4992702;28;20058;-67
2023/09/19 06:57:09;;;;;;;15.88;10.52;;;;;;;22.03;70.28;99787.34;4978881;28;20401;-67
2023/09/19 06:59:37;;;;;;;18.23;11.68;;;;;;;22.02;70.51;99799.22;4979021;28;20136;-68
2023/09/19 07:02:05;;;;;;;16.17;11.15;;;;;;;22.11;70.44;99812.19;4978924;28;20072;-67
2023/09/19 07:04:33;;;;;;;17.50;11.60;;;;;;;22.17;69.94;99799.66;5011291;28;20052;-67
2023/09/19 07:06:59;;;;;;;20.17;10.35;;;;;;;22.14;70.17;99800.91;4995008;28;20288;-68
2023/09/19 07:09:27;;;;;;;23.58;10.95;;;;;;;22.16;69.65;99793.41;4962563;28;20092;-67
2023/09/19 07:11:54;;;;;;;24.15;11.02;;;;;;;22.28;69.70;99791.56;4979190;28;20076;-67
2023/09/19 07:14:20;;;;;;;20.38;11.02;;;;;;;22.32;69.12;99794.66;4978850;28;20069;-67
2023/09/19 07:16:50;;;;;;;22.95;11.35;;;;;;;22.37;69.05;99802.91;4998491;28;20402;-67
2023/09/19 07:19:16;;;;;;;13.02;10.15;;;;;;;22.45;68.83;99803.38;5014868;28;20034;-68
2023/09/19 07:21:42;;;;;;;19.15;11.63;;;;;;;22.31;68.28;99806.53;4982337;28;20466;-68
2023/09/19 07:24:08;;;;;;;19.05;11.23;;;;;;;22.35;68.74;99800.44;4966553;28;20045;-67
2023/09/19 07:26:35;;;;;;;14.82;11.00;;;;;;;22.52;68.36;99798.75;4982423;28;20046;-67
2023/09/19 07:29:04;;;;;;;23.20;12.05;;;;;;;22.67;67.26;99801.84;4982331;28;20086;-68
2023/09/19 07:31:31;;;;;;;23.25;11.73;;;;;;;23.02;66.06;99800.03;4998395;28;20049;-68
2023/09/19 07:33:57;;;;;;;18.33;10.40;;;;;;;23.83;63.98;99799.19;4982304;28;20069;-67
2023/09/19 07:36:24;;;;;;;25.35;10.98;;;;;;;24.29;60.50;99809.91;4998619;28;20084;-68
2023/09/19 07:38:50;;;;;;;23.00;11.95;;;;;;;24.11;60.13;99805.47;4966455;28;20054;-68
2023/09/19 07:41:17;;;;;;;19.83;11.30;;;;;;;23.91;61.08;99796.91;4998204;28;20141;-68
2023/09/19 07:43:44;;;;;;;27.20;12.40;;;;;;;23.64;61.38;99794.97;4982049;28;20107;-68
2023/09/19 07:46:12;;;;;;;23.98;11.80;;;;;;;23.62;61.78;99792.50;4998342;28;20057;-68
2023/09/19 07:48:38;;;;;;;25.55;12.60;;;;;;;23.24;63.55;99779.44;4983418;28;20046;-68
2023/09/19 07:51:06;;;;;;;22.40;12.23;;;;;;;23.01;64.37;99790.25;5001451;28;20115;-67
2023/09/19 07:53:36;;;;;;;25.00;12.75;;;;;;;23.02;64.63;99778.34;5001319;28;20081;-67
2023/09/19 07:56:06;;;;;;;29.05;13.18;;;;;;;23.19;64.55;99784.72;5001279;28;20485;-67
2023/09/19 07:58:33;;;;;;;;;;;;;;;23.59;63.32;99784.03;5001529;28;20523;-68
2023/09/19 08:01:03;;;;;;;31.92;11.98;;;;;;;23.83;62.25;99788.31;5033991;28;19923;-67
2023/09/19 08:03:29;;;;;;;26.92;11.45;;;;;;;23.78;61.37;99785.50;5001104;28;20135;-67
2023/09/19 08:05:59;;;;;;;40.38;14.05;;;;;;;23.40;63.08;99785.22;5000909;28;20430;-68
2023/09/19 08:08:26;;;;;;;24.83;12.48;;;;;;;22.48;65.14;99759.63;5000813;28;20131;-68
2023/09/19 08:10:55;;;;;;;23.42;12.98;;;;;;;22.57;66.81;99757.44;5018007;28;20405;-67
2023/09/19 08:13:24;;;;;;;17.38;13.07;;;;;;;22.20;67.44;99766.72;5017629;28;20041;-69
2023/09/19 08:15:52;;;;;;;24.60;13.93;;;;;;;21.95;69.02;99761.44;5001160;28;20053;-67
2023/09/19 08:18:17;;;;;;;25.85;13.82;;;;;;;21.99;69.24;99754.50;5000688;28;20037;-67
2023/09/19 08:20:46;;;;;;;22.63;12.68;;;;;;;22.45;67.61;99764.69;5000605;28;20052;-67
2023/09/19 08:23:11;;;;;;;20.42;12.98;;;;;;;22.67;66.71;99760.41;5000525;28;20073;-68
2023/09/19 08:25:39;;;;;;;17.70;11.02;;;;;;;24.83;62.60;99754.97;5000561;28;20437;-67
2023/09/19 08:28:08;;;;;;;19.38;11.90;;;;;;;27.28;52.88;99762.50;4999939;28;20507;-68
2023/09/19 08:30:34;;;;;;;22.83;9.77;;;;;;;28.53;48.69;99758.66;5017386;28;20045;-68
2023/09/19 08:33:01;;;;;;;17.33;11.15;;;;;;;29.23;44.67;99756.75;5016801;28;20445;-68
2023/09/19 08:35:28;;;;;;;19.15;9.48;;;;;;;30.61;42.57;99745.75;5000381;28;20057;-69
2023/09/19 08:37:55;;;;;;;19.60;9.73;;;;;;;30.42;40.18;99739.31;5017144;28;20052;-68
2023/09/19 08:40:21;;;;;;;23.83;10.25;;;;;;;30.47;39.01;99745.59;5017060;28;20041;-68
2023/09/19 08:42:56;;;;;;;18.55;10.43;;;;;;;30.40;38.96;99736.06;5016977;28;20431;-68
2023/09/19 08:45:29;;;;;;;26.88;10.63;;;;;;;31.71;36.57;99744.72;5000523;28;20049;-68
2023/09/19 08:48:17;;;;;;;26.83;10.15;;;;;;;33.72;32.30;99747.84;4984990;28;20535;-69
2023/09/19 08:50:47;;;;;;;16.85;9.68;;;;;;;34.29;30.04;99738.06;5016610;28;20049;-68
2023/09/19 08:53:23;;;;;;;12.60;8.63;;;;;;;35.13;29.53;99730.78;5000177;28;20037;-68
2023/09/19 08:55:51;;;;;;;16.63;9.80;;;;;;;36.26;26.86;99735.25;5020106;28;20484;-73
2023/09/19 08:58:20;;;;;;;22.77;9.50;;;;;;;37.23;25.16;99731.81;5007026;28;20053;-75
2023/09/19 09:00:49;;;;;;;18.40;9.88;;;;;;;38.29;23.57;99728.69;4994879;28;20056;-74
2023/09/19 09:03:19;;;;;;;17.40;7.30;;;;;;;40.46;21.27;99724.28;4963559;28;20433;-75
2023/09/19 09:05:46;;;;;;;;;;;;;;;42.80;18.15;99725.06;4980102;28;20078;-75
2023/09/19 09:08:13;;;;;;;13.05;6.70;;;;;;;44.45;16.69;99713.84;4995024;28;19924;-76
2023/09/19 09:10:41;;;;;;;12.32;6.72;;;;;;;45.19;15.16;99720.31;4975342;28;20101;-75
2023/09/19 09:13:09;;;;;;;13.90;7.63;;;;;;;43.35;16.20;99704.91;4953095;28;20051;-76
2023/09/19 09:15:36;;;;;;;17.77;7.18;;;;;;;42.33;17.07;99711.31;4959256;28;20050;-75
2023/09/19 09:18:03;;;;;;;12.90;7.20;;;;;;;41.09;17.90;99705.84;4959246;28;20201;-75
2023/09/19 09:20:28;;;;;;;22.05;8.80;;;;;;;40.26;18.69;99711.38;4959267;28;20520;-76
2023/09/19 09:23:00;;;;;;;10.70;7.20;;;;;;;39.25;19.66;99692.13;4991991;28;20050;-76
2023/09/19 09:25:54;;;;;;;15.43;8.68;;;;;;;37.85;20.94;99694.03;4937290;29;20051;-75
2023/09/19 09:28:22;;;;;;;19.50;10.00;;;;;;;35.09;23.90;99669.84;4937819;29;20451;-75
2023/09/19 09:30:48;;;;;;;17.70;9.68;;;;;;;34.08;25.56;99681.75;4905723;29;20043;-74
2023/09/19 09:33:15;;;;;;;13.07;8.82;;;;;;;32.94;27.69;99669.25;4937007;29;20062;-76
2023/09/19 09:36:08;;;;;;;13.85;9.45;;;;;;;32.65;28.40;99661.19;4930669;28;20065;-75
2023/09/19 09:38:48;;;;;;;14.10;9.77;;;;;;;32.55;29.13;99664.13;4924718;29;20116;-75
2023/09/19 09:41:27;;;;;;;19.77;9.40;;;;;;;31.96;30.39;99664.75;4895903;29;20064;-76
2023/09/19 09:43:54;;;;;;;18.67;8.63;;;;;;;32.01;30.45;99667.44;4881902;29;20048;-76
2023/09/19 09:49:15;;;;;;;20.42;8.40;;;;;;;32.29;30.67;99660.94;4895272;29;20055;-74
2023/09/19 09:51:57;;;;;;;13.77;8.23;;;;;;;31.50;31.99;99649.16;4914476;29;20425;-74
2023/09/19 09:54:33;;;;;;;18.63;9.55;;;;;;;30.71;33.39;99656.00;4867426;29;20099;-71
2023/09/19 09:57:06;;;;;;;16.48;10.30;;;;;;;29.69;35.60;99655.38;4906333;28;20061;-77
2023/09/19 09:59:49;;;;;;;26.10;10.07;;;;;;;29.77;36.44;99652.03;4976021;28;20160;-73
2023/09/19 10:02:25;;;;;;;15.18;8.65;;;;;;;30.63;35.15;99651.13;4991179;28;20129;-75
2023/09/19 10:05:08;;;;;;;19.50;10.68;;;;;;;32.41;31.73;99661.31;4944823;28;20073;-76
2023/09/19 10:07:40;;;;;;;20.85;10.95;;;;;;;34.19;28.94;99666.63;4947393;28;20497;-73
2023/09/19 10:10:19;;;;;;;17.25;9.02;;;;;;;35.56;26.85;99668.28;4966161;28;20045;-75
2023/09/19 10:12:47;;;;;;;27.08;9.98;;;;;;;36.66;25.15;99664.78;5013328;28;20505;-76
2023/09/19 10:15:32;;;;;;;23.80;10.40;;;;;;;36.26;25.20;99660.56;5022121;28;20103;-75
2023/09/19 10:18:01;;;;;;;20.10;9.50;;;;;;;36.29;25.21;99650.81;5012876;28;20455;-75
2023/09/19 10:20:38;;;;;;;22.00;8.52;;;;;;;36.71;24.69;99652.72;4995332;28;20459;-75
2023/09/19 10:23:12;;;;;;;15.50;7.85;;;;;;;37.06;23.94;99640.41;4995162;28;20145;-76
2023/09/19 10:25:42;;;;;;;23.17;7.93;;;;;;;37.44;23.91;99638.50;4995821;28;20045;-75
2023/09/19 10:28:10;;;;;;;23.95;8.10;;;;;;;38.22;22.88;99636.84;4995318;28;20077;-76
2023/09/19 10:30:43;;;;;;;17.10;7.30;;;;;;;38.67;22.27;99632.97;4979008;28;20046;-75
2023/09/19 10:33:10;;;;;;;20.65;7.78;;;;;;;38.81;21.90;99626.28;4978926;28;20072;-75
2023/09/19 10:35:42;;;;;;;20.67;7.63;;;;;;;38.94;21.53;99625.16;4994993;28;20396;-75
2023/09/19 10:38:10;;;;;;;23.80;8.45;;;;;;;38.49;22.05;99628.72;5011805;28;20054;-75
2023/09/19 10:40:40;;;;;;;19.48;7.50;;;;;;;37.14;23.32;99623.78;4978856;28;20581;-75
2023/09/19 10:43:07;;;;;;;22.83;9.15;;;;;;;36.32;24.64;99619.78;4994861;28;20100;-75
2023/09/19 10:45:35;;;;;;;24.70;8.23;;;;;;;35.75;25.36;99617.09;5011312;28;20050;-75
2023/09/19 10:48:07;;;;;;;28.30;8.98;;;;;;;35.30;26.06;99601.88;4979024;28;20421;-74
2023/09/19 10:51:04;;;;;;;23.75;8.88;;;;;;;35.00;26.46;99596.41;5003705;28;20049;-76
2023/09/19 10:53:52;;;;;;;22.13;8.30;;;;;;;34.50;27.54;99603.28;5031796;28;20109;-75
2023/09/19 10:56:41;;;;;;;16.65;7.78;;;;;;;34.38;27.85;99594.75;5010122;28;20045;-75
2023/09/19 10:59:21;;;;;;;16.92;8.07;;;;;;;34.27;28.01;99594.19;5018313;28;20045;-75
2023/09/19 11:02:17;;;;;;;21.20;8.15;;;;;;;34.62;27.79;99601.56;5050295;28;20484;-74
2023/09/19 11:04:47;;;;;;;22.90;7.93;;;;;;;35.10;27.17;99594.19;5050629;28;20369;-75
2023/09/19 11:07:15;;;;;;;50.13;9.68;;;;;;;35.91;26.37;99600.88;5001013;28;20183;-75
2023/09/19 11:10:01;;;;;;;22.35;7.50;;;;;;;37.51;24.21;99594.41;5018208;28;20094;-77
2023/09/19 11:12:35;;;;;;;19.50;7.95;;;;;;;37.82;23.49;99596.84;5018767;28;20045;-75
2023/09/19 11:15:08;;;;;;;18.35;7.85;;;;;;;37.42;23.89;99588.13;5050797;28;20404;-75
2023/09/19 11:17:37;;;;;;;15.95;7.78;;;;;;;38.73;22.63;99597.47;5002216;28;20049;-77
2023/09/19 11:22:53;;;;;;;25.83;7.50;;;;;;;39.16;21.89;99592.22;5034058;28;20143;-73
2023/09/19 11:25:49;;;;;;;10.50;6.40;;;;;;;40.44;20.61;99594.97;5050192;28;20099;-77
2023/09/19 11:28:22;;;;;;;17.50;6.22;;;;;;;41.35;19.68;99595.38;5032355;28;20041;-75
2023/09/19 11:30:52;;;;;;;17.23;6.70;;;;;;;42.02;19.11;99593.34;5033697;28;20484;-74
2023/09/19 11:33:37;;;;;;;11.35;6.30;;;;;;;41.96;18.63;99594.81;5017317;28;20056;-77
2023/09/19 11:36:36;;;;;;;17.55;6.35;;;;;;;39.36;20.87;99582.13;5032614;28;20084;-77